Time;durP1;ratioP1;P1;durP2;ratioP2;P2;SDS_P1;SDS_P2;PMS_P1;PMS_P2;Temp;Humidity;BMP_temperature;BMP_pressure;BME280_temperature;BME280_humidity;BME280_pressure;Samples;Min_cycle;Max_cycle;Signal;HPM_P1;HPM_P2
2023/06/17 00:02:02;;;;;;;40.40;19.25;;;;;;;;;;5033376;28;20053;-74
2023/06/17 00:04:28;;;;;;;35.17;19.05;;;;;;;;;;5040292;28;20022;-73
2023/06/17 00:06:54;;;;;;;35.25;19.73;;;;;;;;;;5032249;28;20028;-73
2023/06/17 00:09:20;;;;;;;37.30;19.15;;;;;;;;;;5032559;28;20367;-73
2023/06/17 00:11:47;;;;;;;35.92;19.73;;;;;;;;;;5032737;28;20033;-74
2023/06/17 00:14:14;;;;;;;35.75;20.45;;;;;;;;;;5033173;28;20025;-74
2023/06/17 00:16:43;;;;;;;34.13;19.67;;;;;;;;;;5033523;28;20018;-75
2023/06/17 00:19:20;;;;;;;34.78;20.35;;;;;;;;;;5033328;28;20497;-74
2023/06/17 00:21:52;;;;;;;38.08;21.27;;;;;;;;;;5032142;28;20454;-74
2023/06/17 00:24:18;;;;;;;33.95;20.60;;;;;;;;;;5033249;28;20055;-74
2023/06/17 00:26:44;;;;;;;36.00;21.67;;;;;;;;;;5032981;28;20048;-74
2023/06/17 00:29:11;;;;;;;45.45;22.08;;;;;;;;;;5034214;28;20021;-72
2023/06/17 00:31:37;;;;;;;39.80;21.85;;;;;;;;;;5038181;28;20060;-72
2023/06/17 00:34:03;;;;;;;40.30;21.83;;;;;;;;;;5034571;28;20029;-73
2023/06/17 00:36:29;;;;;;;49.80;26.38;;;;;;;;;;5032276;28;20041;-72
2023/06/17 00:38:55;;;;;;;43.08;23.25;;;;;;;;;;5031706;28;20025;-73
2023/06/17 00:41:21;;;;;;;37.20;22.20;;;;;;;;;;5032207;28;20105;-73
2023/06/17 00:43:47;;;;;;;46.55;25.45;;;;;;;;;;5032649;28;20029;-73
2023/06/17 00:46:20;;;;;;;41.42;24.50;;;;;;;;;;5032969;28;20021;-73
2023/06/17 00:48:46;;;;;;;43.92;24.38;;;;;;;;;;5031991;28;20065;-74
2023/06/17 00:51:12;;;;;;;42.35;25.50;;;;;;;;;;5032752;28;20460;-73
2023/06/17 00:53:38;;;;;;;43.72;24.88;;;;;;;;;;5032072;28;20033;-73
2023/06/17 00:56:04;;;;;;;42.95;24.70;;;;;;;;;;5033136;28;20029;-73
2023/06/17 00:58:30;;;;;;;50.30;25.77;;;;;;;;;;5032270;28;20391;-73
2023/06/17 01:00:56;;;;;;;43.17;25.38;;;;;;;;;;5032322;28;20068;-73
2023/06/17 01:03:24;;;;;;;40.72;25.00;;;;;;;;;;5032274;28;20025;-75
2023/06/17 01:05:51;;;;;;;47.40;25.45;;;;;;;;;;5032796;28;20387;-73
2023/06/17 01:08:28;;;;;;;46.03;25.65;;;;;;;;;;5032606;28;20052;-72
2023/06/17 01:11:06;;;;;;;44.53;24.70;;;;;;;;;;5033292;28;20098;-74
2023/06/17 01:13:34;;;;;;;41.97;23.80;;;;;;;;;;5032567;28;20029;-74
2023/06/17 01:16:01;;;;;;;40.88;23.65;;;;;;;;;;5037103;28;20025;-73
2023/06/17 01:18:27;;;;;;;41.58;24.60;;;;;;;;;;5040163;28;20407;-73
2023/06/17 01:20:55;;;;;;;44.83;24.80;;;;;;;;;;5039469;28;20018;-74
2023/06/17 01:23:23;;;;;;;50.75;27.27;;;;;;;;;;5038381;28;20041;-73
2023/06/17 01:25:49;;;;;;;47.70;26.30;;;;;;;;;;5036226;28;20021;-74
2023/06/17 01:28:16;;;;;;;46.15;25.00;;;;;;;;;;5032170;28;20032;-73
2023/06/17 01:30:43;;;;;;;41.22;25.80;;;;;;;;;;5031926;28;20026;-73
2023/06/17 01:33:10;;;;;;;49.13;27.98;;;;;;;;;;5030546;28;20026;-72
2023/06/17 01:35:38;;;;;;;42.83;27.42;;;;;;;;;;5031057;28;20371;-72
2023/06/17 01:38:19;;;;;;;49.58;26.95;;;;;;;;;;5031096;28;20029;-72
2023/06/17 01:40:45;;;;;;;54.83;27.58;;;;;;;;;;5030346;28;20104;-73
2023/06/17 01:43:16;;;;;;;54.70;30.00;;;;;;;;;;5030402;28;20103;-72
2023/06/17 01:45:42;;;;;;;43.88;27.13;;;;;;;;;;5030946;28;20040;-73
2023/06/17 01:48:08;;;;;;;45.30;26.42;;;;;;;;;;5031173;28;20053;-73
2023/06/17 01:50:34;;;;;;;51.17;28.23;;;;;;;;;;5029216;28;20383;-72
2023/06/17 01:53:00;;;;;;;51.47;29.15;;;;;;;;;;5027661;28;20066;-74
2023/06/17 01:55:26;;;;;;;41.88;26.35;;;;;;;;;;5030803;28;20057;-74
2023/06/17 01:57:52;;;;;;;46.22;25.48;;;;;;;;;;5030761;28;20479;-73
2023/06/17 02:00:18;;;;;;;44.80;26.23;;;;;;;;;;5027900;28;20060;-73
2023/06/17 02:02:45;;;;;;;47.83;28.00;;;;;;;;;;5030464;28;20108;-73
2023/06/17 02:05:11;;;;;;;44.63;26.20;;;;;;;;;;5030742;28;20429;-72
2023/06/17 02:07:37;;;;;;;45.53;26.52;;;;;;;;;;5030605;28;20017;-72
2023/06/17 02:10:04;;;;;;;48.10;27.45;;;;;;;;;;5030339;28;20053;-72
2023/06/17 02:12:30;;;;;;;53.95;28.10;;;;;;;;;;5029381;28;20028;-73
2023/06/17 02:14:56;;;;;;;47.08;26.48;;;;;;;;;;5030311;28;20511;-73
2023/06/17 02:17:23;;;;;;;47.03;27.73;;;;;;;;;;5030643;28;20036;-73
2023/06/17 02:19:49;;;;;;;52.42;28.17;;;;;;;;;;5030447;28;20059;-73
2023/06/17 02:22:15;;;;;;;53.22;26.98;;;;;;;;;;5029961;28;20028;-74
2023/06/17 02:24:42;;;;;;;51.58;28.02;;;;;;;;;;5030050;28;20033;-73
2023/06/17 02:27:08;;;;;;;51.13;27.02;;;;;;;;;;5030247;28;20022;-74
2023/06/17 02:29:34;;;;;;;47.22;27.15;;;;;;;;;;5030021;28;20017;-74
2023/06/17 02:32:00;;;;;;;49.72;27.23;;;;;;;;;;5029696;28;20108;-74
2023/06/17 02:34:27;;;;;;;51.75;29.73;;;;;;;;;;5030140;28;20032;-73
2023/06/17 02:36:56;;;;;;;50.88;29.35;;;;;;;;;;5030306;28;20048;-72
2023/06/17 02:39:22;;;;;;;51.03;27.85;;;;;;;;;;5029624;28;20026;-73
2023/06/17 02:41:49;;;;;;;57.35;30.83;;;;;;;;;;5029443;28;20087;-72
2023/06/17 02:44:14;;;;;;;54.60;28.13;;;;;;;;;;5030125;28;20109;-73
2023/06/17 02:46:41;;;;;;;51.30;27.92;;;;;;;;;;5030164;28;20509;-74
2023/06/17 02:49:07;;;;;;;57.05;29.73;;;;;;;;;;5030477;28;20025;-73
2023/06/17 02:51:34;;;;;;;50.00;27.85;;;;;;;;;;5029368;28;20359;-71
2023/06/17 02:54:00;;;;;;;57.08;27.83;;;;;;;;;;5029907;28;20029;-72
2023/06/17 02:56:26;;;;;;;52.83;28.80;;;;;;;;;;5030127;28;20060;-72
2023/06/17 02:58:52;;;;;;;50.35;28.48;;;;;;;;;;5031180;28;20112;-73
2023/06/17 03:01:21;;;;;;;43.92;26.08;;;;;;;;;;5029959;28;20100;-75
2023/06/17 03:03:48;;;;;;;52.88;27.60;;;;;;;;;;5031128;28;20025;-72
2023/06/17 03:06:15;;;;;;;43.63;25.20;;;;;;;;;;5033217;28;20020;-72
2023/06/17 03:08:41;;;;;;;42.63;25.55;;;;;;;;;;5033792;28;20025;-71
2023/06/17 03:11:07;;;;;;;48.30;27.92;;;;;;;;;;5034221;28;20021;-72
2023/06/17 03:13:33;;;;;;;46.50;27.58;;;;;;;;;;5033733;28;20025;-71
2023/06/17 03:16:01;;;;;;;45.40;27.30;;;;;;;;;;5033518;28;20029;-72
2023/06/17 03:18:28;;;;;;;47.63;25.35;;;;;;;;;;5032967;28;20075;-71
2023/06/17 03:20:54;;;;;;;46.42;25.83;;;;;;;;;;5034046;28;20099;-71
2023/06/17 03:23:21;;;;;;;52.67;27.10;;;;;;;;;;5033121;28;20026;-71
2023/06/17 03:25:48;;;;;;;46.15;24.30;;;;;;;;;;5033387;28;20030;-71
2023/06/17 03:28:15;;;;;;;44.75;26.70;;;;;;;;;;5033429;28;20056;-72
2023/06/17 03:30:41;;;;;;;41.60;24.25;;;;;;;;;;5032981;28;20104;-71
2023/06/17 03:33:08;;;;;;;42.28;23.25;;;;;;;;;;5032810;28;20031;-71
2023/06/17 03:35:34;;;;;;;38.60;22.92;;;;;;;;;;5034110;28;20449;-71
2023/06/17 03:38:01;;;;;;;42.28;23.02;;;;;;;;;;5033168;28;20033;-70
2023/06/17 03:40:27;;;;;;;43.03;22.95;;;;;;;;;;5032969;28;20494;-72
2023/06/17 03:42:54;;;;;;;47.20;23.85;;;;;;;;;;5033582;28;20030;-71
2023/06/17 03:45:20;;;;;;;41.03;25.23;;;;;;;;;;5033803;28;20025;-72
2023/06/17 03:47:46;;;;;;;43.88;25.38;;;;;;;;;;5033690;28;20068;-73
2023/06/17 03:50:13;;;;;;;47.55;27.70;;;;;;;;;;5033570;28;20382;-71
2023/06/17 03:52:39;;;;;;;44.92;24.05;;;;;;;;;;5036399;28;20525;-74
2023/06/17 03:55:05;;;;;;;38.65;23.63;;;;;;;;;;5037073;28;20029;-72
2023/06/17 03:57:31;;;;;;;47.13;24.40;;;;;;;;;;5033483;28;20091;-70
2023/06/17 03:59:57;;;;;;;40.78;23.30;;;;;;;;;;5033184;28;20542;-70
2023/06/17 04:02:23;;;;;;;39.83;23.30;;;;;;;;;;5033235;28;20061;-70
2023/06/17 04:04:52;;;;;;;41.53;23.73;;;;;;;;;;5034476;28;20099;-72
2023/06/17 04:07:19;;;;;;;43.90;26.30;;;;;;;;;;5034297;28;20578;-72
2023/06/17 04:09:45;;;;;;;42.35;24.90;;;;;;;;;;5032117;28;20045;-71
2023/06/17 04:12:11;;;;;;;40.83;23.02;;;;;;;;;;5032879;28;20025;-71
2023/06/17 04:14:37;;;;;;;46.28;23.58;;;;;;;;;;5033052;28;20034;-71
2023/06/17 04:17:03;;;;;;;44.05;23.75;;;;;;;;;;5033256;28;20476;-70
2023/06/17 04:19:31;;;;;;;43.50;23.42;;;;;;;;;;5033380;28;20425;-71
2023/06/17 04:21:57;;;;;;;48.40;25.50;;;;;;;;;;5031570;28;20057;-71
2023/06/17 04:24:24;;;;;;;41.05;23.13;;;;;;;;;;5033218;28;20065;-71
2023/06/17 04:26:52;;;;;;;43.47;25.58;;;;;;;;;;5033106;28;20021;-70
2023/06/17 04:29:18;;;;;;;42.95;24.48;;;;;;;;;;5033118;28;20028;-71
2023/06/17 04:31:46;;;;;;;45.20;24.77;;;;;;;;;;5033180;28;20018;-70
2023/06/17 04:34:21;;;;;;;42.53;23.65;;;;;;;;;;5035350;28;20025;-72
2023/06/17 04:36:49;;;;;;;42.03;24.27;;;;;;;;;;5032615;28;20087;-71
2023/06/17 04:39:16;;;;;;;42.22;24.88;;;;;;;;;;5032629;28;20021;-72
2023/06/17 04:41:45;;;;;;;56.00;29.13;;;;;;;;;;5032371;28;20025;-71
2023/06/17 04:44:11;;;;;;;44.30;27.02;;;;;;;;;;5032756;28;20092;-72
2023/06/17 04:46:37;;;;;;;62.45;31.27;;;;;;;;;;5032342;28;20021;-72
2023/06/17 04:49:04;;;;;;;49.33;29.38;;;;;;;;;;5032579;28;20421;-72
2023/06/17 04:51:30;;;;;;;56.30;32.25;;;;;;;;;;5032465;28;20028;-72
2023/06/17 04:53:56;;;;;;;49.92;29.42;;;;;;;;;;5032176;28;20017;-71
2023/06/17 04:56:26;;;;;;;54.95;31.40;;;;;;;;;;5032974;28;20117;-72
2023/06/17 04:58:52;;;;;;;55.40;29.33;;;;;;;;;;5034961;28;20024;-73
2023/06/17 05:01:18;;;;;;;49.50;30.02;;;;;;;;;;5040125;28;20531;-73
2023/06/17 05:03:44;;;;;;;54.70;32.35;;;;;;;;;;5042515;28;20087;-73
2023/06/17 05:06:10;;;;;;;58.95;31.33;;;;;;;;;;5035474;28;20026;-75
2023/06/17 05:08:36;;;;;;;55.63;30.73;;;;;;;;;;5034871;28;20457;-79
2023/06/17 05:11:02;;;;;;;62.45;31.38;;;;;;;;;;5032632;28;20022;-74
2023/06/17 05:13:28;;;;;;;51.28;31.05;;;;;;;;;;5032309;28;20094;-73
2023/06/17 05:15:54;;;;;;;69.38;34.60;;;;;;;;;;5031887;28;20025;-72
2023/06/17 05:18:20;;;;;;;59.90;33.85;;;;;;;;;;5031868;28;20100;-75
2023/06/17 05:20:46;;;;;;;65.90;35.13;;;;;;;;;;5031659;28;20113;-74
2023/06/17 05:23:12;;;;;;;55.00;32.50;;;;;;;;;;5031559;28;20025;-72
2023/06/17 05:25:38;;;;;;;54.47;33.40;;;;;;;;;;5033291;28;20033;-78
2023/06/17 05:28:10;;;;;;;59.05;32.45;;;;;;;;;;5038635;28;20359;-77
2023/06/17 05:30:36;;;;;;;59.33;33.30;;;;;;;;;;5032293;28;20036;-72
2023/06/17 05:33:02;;;;;;;52.28;32.38;;;;;;;;;;5032380;28;20029;-71
2023/06/17 05:35:28;;;;;;;53.58;31.73;;;;;;;;;;5048516;28;20028;-72
2023/06/17 05:37:54;;;;;;;61.53;33.35;;;;;;;;;;5031824;28;20022;-71
2023/06/17 05:40:20;;;;;;;60.83;33.40;;;;;;;;;;5034740;28;20046;-72
2023/06/17 05:42:46;;;;;;;59.40;32.85;;;;;;;;;;5037964;28;20108;-73
2023/06/17 05:45:12;;;;;;;54.55;31.52;;;;;;;;;;5033661;28;20033;-73
2023/06/17 05:47:38;;;;;;;53.30;30.77;;;;;;;;;;5031481;28;20033;-73
2023/06/17 05:50:04;;;;;;;53.40;31.55;;;;;;;;;;5032872;28;20022;-73
2023/06/17 05:52:30;;;;;;;61.67;32.35;;;;;;;;;;5037888;28;20472;-71
2023/06/17 05:54:56;;;;;;;56.55;31.52;;;;;;;;;;5038821;28;20029;-73
2023/06/17 05:57:22;;;;;;;64.05;33.97;;;;;;;;;;5034425;28;20033;-72
2023/06/17 05:59:48;;;;;;;62.10;32.70;;;;;;;;;;5031187;28;20025;-72
2023/06/17 06:02:14;;;;;;;61.05;32.53;;;;;;;;;;5030160;28;20545;-72
2023/06/17 06:04:40;;;;;;;61.53;35.50;;;;;;;;;;5038464;28;20064;-72
2023/06/17 06:07:07;;;;;;;54.28;32.47;;;;;;;;;;5031073;28;20021;-73
2023/06/17 06:09:33;;;;;;;56.13;33.33;;;;;;;;;;5030890;28;20022;-73
2023/06/17 06:11:59;;;;;;;63.20;32.42;;;;;;;;;;5029736;28;20037;-71
2023/06/17 06:14:25;;;;;;;55.53;30.25;;;;;;;;;;5039772;28;20052;-71
2023/06/17 06:16:51;;;;;;;50.22;30.20;;;;;;;;;;5031337;28;20056;-71
2023/06/17 06:19:17;;;;;;;56.35;31.02;;;;;;;;;;5031214;28;20515;-74
2023/06/17 06:21:43;;;;;;;58.75;32.38;;;;;;;;;;5031631;28;20022;-74
2023/06/17 06:24:09;;;;;;;61.90;36.63;;;;;;;;;;5032450;28;20029;-73
2023/06/17 06:26:35;;;;;;;55.05;30.67;;;;;;;;;;5032489;28;20025;-73
2023/06/17 06:29:01;;;;;;;58.05;31.80;;;;;;;;;;5033059;28;20022;-74
2023/06/17 06:31:27;;;;;;;68.13;34.38;;;;;;;;;;5032123;28;20064;-74
2023/06/17 06:33:53;;;;;;;54.25;30.70;;;;;;;;;;5031080;28;20023;-73
2023/06/17 06:36:19;;;;;;;54.80;30.98;;;;;;;;;;5031460;28;20463;-72
2023/06/17 06:38:45;;;;;;;59.88;31.50;;;;;;;;;;5035693;28;20017;-77
2023/06/17 06:41:11;;;;;;;57.97;30.73;;;;;;;;;;5035310;28;20117;-74
2023/06/17 06:43:37;;;;;;;52.13;30.58;;;;;;;;;;5035338;28;20104;-72
2023/06/17 06:46:04;;;;;;;49.40;30.13;;;;;;;;;;5035042;28;20079;-72
2023/06/17 06:48:30;;;;;;;59.10;30.70;;;;;;;;;;5035109;28;20475;-73
2023/06/17 06:50:56;;;;;;;51.67;30.65;;;;;;;;;;5035158;28;20025;-72
2023/06/17 06:53:23;;;;;;;54.03;30.52;;;;;;;;;;5039215;28;20033;-73
2023/06/17 06:55:50;;;;;;;49.83;29.02;;;;;;;;;;5037642;28;20053;-74
2023/06/17 06:58:16;;;;;;;58.92;30.45;;;;;;;;;;5034036;28;20055;-74
2023/06/17 07:00:42;;;;;;;45.20;29.40;;;;;;;;;;5037386;28;20108;-73
2023/06/17 07:03:08;;;;;;;48.78;28.67;;;;;;;;;;5032738;28;20029;-73
2023/06/17 07:05:34;;;;;;;54.95;30.33;;;;;;;;;;5035341;28;20025;-72
2023/06/17 07:08:00;;;;;;;54.72;29.02;;;;;;;;;;5034543;28;20021;-73
2023/06/17 07:10:26;;;;;;;55.42;29.88;;;;;;;;;;5034738;28;20060;-72
2023/06/17 07:12:52;;;;;;;53.22;29.10;;;;;;;;;;5033479;28;20045;-73
2023/06/17 07:15:18;;;;;;;44.75;26.20;;;;;;;;;;5034428;28;20450;-72
2023/06/17 07:17:44;;;;;;;55.50;30.52;;;;;;;;;;5034447;28;20057;-73
2023/06/17 07:20:10;;;;;;;50.42;27.42;;;;;;;;;;5034478;28;20101;-74
2023/06/17 07:22:36;;;;;;;53.45;28.85;;;;;;;;;;5035077;28;20386;-73
2023/06/17 07:25:03;;;;;;;59.15;31.70;;;;;;;;;;5038165;28;20084;-72
2023/06/17 07:27:29;;;;;;;51.25;28.52;;;;;;;;;;5036536;28;20487;-73
2023/06/17 07:29:54;;;;;;;72.65;33.08;;;;;;;;;;5037427;28;20034;-72
2023/06/17 07:32:20;;;;;;;63.40;32.85;;;;;;;;;;5033738;28;20025;-73
2023/06/17 07:34:46;;;;;;;64.57;32.78;;;;;;;;;;5034298;28;20113;-73
2023/06/17 07:37:12;;;;;;;49.75;29.15;;;;;;;;;;5034300;28;20053;-73
2023/06/17 07:39:38;;;;;;;44.88;27.27;;;;;;;;;;5033882;28;20060;-74
2023/06/17 07:42:04;;;;;;;47.80;27.10;;;;;;;;;;5033417;28;20113;-73
2023/06/17 07:44:32;;;;;;;53.50;29.10;;;;;;;;;;5033745;28;20037;-72
2023/06/17 07:46:58;;;;;;;52.25;28.55;;;;;;;;;;5035024;28;20028;-73
2023/06/17 07:49:24;;;;;;;50.03;27.60;;;;;;;;;;5035988;28;20092;-76
2023/06/17 07:51:51;;;;;;;57.03;28.95;;;;;;;;;;5036694;28;20017;-72
2023/06/17 07:54:17;;;;;;;57.63;30.38;;;;;;;;;;5040158;28;20033;-74
2023/06/17 07:56:43;;;;;;;59.03;31.70;;;;;;;;;;5036327;28;20033;-75
2023/06/17 07:59:09;;;;;;;64.55;34.78;;;;;;;;;;5035397;28;20030;-75
2023/06/17 08:01:37;;;;;;;79.57;40.33;;;;;;;;;;5036422;28;20053;-75
2023/06/17 08:04:03;;;;;;;73.13;38.85;;;;;;;;;;5033939;28;20095;-74
2023/06/17 08:06:29;;;;;;;66.85;38.08;;;;;;;;;;5035165;28;20045;-74
2023/06/17 08:08:55;;;;;;;64.78;36.17;;;;;;;;;;5037698;28;20064;-73
2023/06/17 08:11:21;;;;;;;78.32;39.50;;;;;;;;;;5034294;28;20026;-75
2023/06/17 08:13:47;;;;;;;83.35;46.05;;;;;;;;;;5033600;28;20124;-75
2023/06/17 08:16:13;;;;;;;69.25;39.28;;;;;;;;;;5034352;28;20025;-75
2023/06/17 08:18:39;;;;;;;91.82;49.38;;;;;;;;;;5033311;28;20152;-74
2023/06/17 08:21:05;;;;;;;106.55;56.85;;;;;;;;;;5033020;28;20017;-74
2023/06/17 08:23:31;;;;;;;95.32;52.20;;;;;;;;;;5032814;28;20028;-73
2023/06/17 08:25:57;;;;;;;82.07;45.28;;;;;;;;;;5033003;28;20152;-74
2023/06/17 08:28:23;;;;;;;122.20;62.00;;;;;;;;;;5034887;28;20478;-74
2023/06/17 08:30:51;;;;;;;96.70;52.47;;;;;;;;;;5035848;28;20052;-73
2023/06/17 08:33:17;;;;;;;84.20;42.33;;;;;;;;;;5034297;28;20026;-76
2023/06/17 08:35:43;;;;;;;57.45;32.90;;;;;;;;;;5035367;28;20053;-75
2023/06/17 08:38:09;;;;;;;66.13;38.60;;;;;;;;;;5035960;28;20394;-75
2023/06/17 08:40:36;;;;;;;66.60;38.03;;;;;;;;;;5036970;28;20029;-74
2023/06/17 08:43:03;;;;;;;62.95;34.60;;;;;;;;;;5035098;28;20029;-75
2023/06/17 08:45:29;;;;;;;54.30;31.88;;;;;;;;;;5035030;28;20036;-73
2023/06/17 08:47:55;;;;;;;57.53;34.13;;;;;;;;;;5035239;28;20502;-74
2023/06/17 08:50:22;;;;;;;52.63;33.58;;;;;;;;;;5032823;28;20079;-76
2023/06/17 08:52:48;;;;;;;48.13;28.30;;;;;;;;;;5032735;28;20030;-74
2023/06/17 08:55:14;;;;;;;51.80;30.02;;;;;;;;;;5032950;28;20034;-74
2023/06/17 08:57:41;;;;;;;55.92;29.35;;;;;;;;;;5033648;28;20026;-74
2023/06/17 09:00:10;;;;;;;47.83;30.08;;;;;;;;;;5034599;28;20032;-74
2023/06/17 09:02:37;;;;;;;56.17;29.30;;;;;;;;;;5032444;28;20479;-72
2023/06/17 09:05:04;;;;;;;48.28;30.08;;;;;;;;;;5032407;28;20034;-73
2023/06/17 09:07:30;;;;;;;43.38;25.95;;;;;;;;;;5032313;28;20368;-73
2023/06/17 09:10:03;;;;;;;44.75;25.90;;;;;;;;;;5032360;28;20049;-74
2023/06/17 09:12:36;;;;;;;46.38;25.77;;;;;;;;;;5037119;28;20025;-73
2023/06/17 09:15:02;;;;;;;47.40;25.48;;;;;;;;;;5036782;28;20026;-72
2023/06/17 09:17:32;;;;;;;46.33;25.30;;;;;;;;;;5033699;28;20475;-73
2023/06/17 09:20:17;;;;;;;45.88;26.92;;;;;;;;;;5035728;28;20446;-75
2023/06/17 09:22:44;;;;;;;50.80;26.67;;;;;;;;;;5034358;28;20052;-74
2023/06/17 09:25:14;;;;;;;42.47;25.67;;;;;;;;;;5033331;28;20036;-74
2023/06/17 09:27:53;;;;;;;39.88;24.48;;;;;;;;;;5036798;28;20056;-74
2023/06/17 09:30:22;;;;;;;42.60;24.92;;;;;;;;;;5037994;28;20037;-74
2023/06/17 09:32:51;;;;;;;44.78;24.70;;;;;;;;;;5040663;28;20529;-75
2023/06/17 09:35:18;;;;;;;47.30;25.42;;;;;;;;;;5041611;28;20114;-73
2023/06/17 09:37:44;;;;;;;39.75;22.67;;;;;;;;;;5041458;28;20072;-74
2023/06/17 09:40:11;;;;;;;34.58;22.48;;;;;;;;;;5040256;28;20037;-76
2023/06/17 09:42:37;;;;;;;36.13;22.85;;;;;;;;;;5042269;28;20380;-74
2023/06/17 09:45:08;;;;;;;42.28;23.30;;;;;;;;;;5040263;28;20113;-73
2023/06/17 09:47:34;;;;;;;35.28;20.55;;;;;;;;;;5038655;28;20037;-75
2023/06/17 09:50:03;;;;;;;36.83;21.23;;;;;;;;;;5035984;28;20498;-74
2023/06/17 09:52:35;;;;;;;32.90;20.15;;;;;;;;;;5036786;28;20028;-75
2023/06/17 09:55:02;;;;;;;39.03;21.20;;;;;;;;;;5036913;28;20112;-75
2023/06/17 09:57:32;;;;;;;36.35;21.52;;;;;;;;;;5036986;28;20570;-73
2023/06/17 10:00:09;;;;;;;42.30;21.70;;;;;;;;;;5034900;28;20124;-74
2023/06/17 10:02:36;;;;;;;31.30;18.77;;;;;;;;;;5031636;28;20049;-73
2023/06/17 10:05:03;;;;;;;29.92;19.02;;;;;;;;;;5031547;28;20040;-73
2023/06/17 10:07:29;;;;;;;37.22;18.27;;;;;;;;;;5032344;28;20387;-74
2023/06/17 10:09:56;;;;;;;36.40;19.48;;;;;;;;;;5032636;28;20391;-76
2023/06/17 10:12:22;;;;;;;31.95;19.08;;;;;;;;;;5033142;28;20033;-75
2023/06/17 10:14:50;;;;;;;30.38;18.60;;;;;;;;;;5034095;28;20045;-75
2023/06/17 10:17:17;;;;;;;31.63;17.13;;;;;;;;;;5034049;28;20069;-76
2023/06/17 10:19:43;;;;;;;28.77;18.38;;;;;;;;;;5034799;28;20034;-74
2023/06/17 10:22:11;;;;;;;29.77;17.42;;;;;;;;;;5037719;28;20037;-75
2023/06/17 10:24:38;;;;;;;23.60;14.77;;;;;;;;;;5036382;28;20036;-75
2023/06/17 10:27:05;;;;;;;24.50;14.75;;;;;;;;;;5031472;28;20067;-74
2023/06/17 10:29:32;;;;;;;31.23;16.63;;;;;;;;;;5031091;28;20534;-75
2023/06/17 10:32:09;;;;;;;22.88;14.98;;;;;;;;;;5029333;28;20021;-75
2023/06/17 10:34:35;;;;;;;21.65;13.93;;;;;;;;;;5031114;28;20037;-73
2023/06/17 10:37:01;;;;;;;19.70;12.82;;;;;;;;;;5033976;28;20409;-74
2023/06/17 10:39:27;;;;;;;18.75;12.43;;;;;;;;;;5033817;28;20101;-75
2023/06/17 10:41:59;;;;;;;22.65;11.95;;;;;;;;;;5031479;28;20064;-79
2023/06/17 10:44:34;;;;;;;20.80;11.60;;;;;;;;;;5032807;28;20483;-77
2023/06/17 10:47:00;;;;;;;19.83;11.90;;;;;;;;;;5035082;28;20026;-78
2023/06/17 10:49:36;;;;;;;21.90;10.82;;;;;;;;;;5034971;28;20029;-75
2023/06/17 10:52:03;;;;;;;19.58;9.93;;;;;;;;;;5035427;28;20026;-76
2023/06/17 10:54:30;;;;;;;16.27;8.70;;;;;;;;;;5038870;28;20084;-76
2023/06/17 10:56:56;;;;;;;17.35;10.30;;;;;;;;;;5017659;28;20112;-76
2023/06/17 10:59:29;;;;;;;21.05;12.38;;;;;;;;;;5033805;28;20445;-76
2023/06/17 11:02:03;;;;;;;21.60;10.32;;;;;;;;;;5032676;28;20025;-75
2023/06/17 11:04:32;;;;;;;14.15;8.05;;;;;;;;;;5034105;28;20025;-74
2023/06/17 11:07:02;;;;;;;13.98;9.27;;;;;;;;;;5031265;28;20033;-75
2023/06/17 11:09:29;;;;;;;23.88;14.30;;;;;;;;;;5031496;28;20248;-75
2023/06/17 11:11:55;;;;;;;22.15;10.63;;;;;;;;;;5031788;28;20021;-75
2023/06/17 11:14:22;;;;;;;20.67;12.70;;;;;;;;;;5031129;28;20076;-75
2023/06/17 11:16:49;;;;;;;17.15;9.30;;;;;;;;;;5031270;28;20048;-75
2023/06/17 11:19:15;;;;;;;16.98;9.05;;;;;;;;;;5031496;28;20450;-73
2023/06/17 11:21:41;;;;;;;14.98;8.50;;;;;;;;;;5030447;28;20030;-74
2023/06/17 11:24:09;;;;;;;18.52;9.75;;;;;;;;;;5031483;28;20048;-73
2023/06/17 11:26:35;;;;;;;18.50;9.48;;;;;;;;;;5034324;28;20022;-74
2023/06/17 11:29:01;;;;;;;14.55;8.05;;;;;;;;;;5034125;28;20021;-75
2023/06/17 11:31:28;;;;;;;13.05;8.23;;;;;;;;;;5034134;28;20481;-74
2023/06/17 11:34:00;;;;;;;18.10;7.70;;;;;;;;;;5034250;28;20021;-74
2023/06/17 11:36:26;;;;;;;12.60;7.97;;;;;;;;;;5034439;28;20022;-74
2023/06/17 11:38:55;;;;;;;14.70;9.48;;;;;;;;;;5037358;28;20107;-76
2023/06/17 11:41:24;;;;;;;14.10;7.68;;;;;;;;;;5035937;28;20029;-75
2023/06/17 11:43:50;;;;;;;15.55;8.25;;;;;;;;;;5037082;28;20023;-75
2023/06/17 11:46:23;;;;;;;20.10;7.65;;;;;;;;;;5036753;28;20116;-76
2023/06/17 11:48:49;;;;;;;12.50;7.00;;;;;;;;;;5038185;28;20041;-75
2023/06/17 11:51:16;;;;;;;20.85;7.95;;;;;;;;;;5036487;28;20021;-75
2023/06/17 11:53:44;;;;;;;14.00;7.43;;;;;;;;;;5035314;28;20105;-74
2023/06/17 11:56:10;;;;;;;11.77;8.18;;;;;;;;;;5034808;28;20029;-74
2023/06/17 11:58:37;;;;;;;13.27;7.35;;;;;;;;;;5035702;28;20025;-75
2023/06/17 12:01:03;;;;;;;18.05;7.10;;;;;;;;;;5035597;28;20435;-73
2023/06/17 12:03:30;;;;;;;14.88;6.55;;;;;;;;;;5034336;28;20029;-74
2023/06/17 12:05:59;;;;;;;10.73;7.10;;;;;;;;;;5034294;28;20022;-75
2023/06/17 12:08:32;;;;;;;10.55;6.65;;;;;;;;;;5035345;28;20036;-75
2023/06/17 12:10:58;;;;;;;13.23;6.90;;;;;;;;;;5035203;28;20028;-75
2023/06/17 12:13:24;;;;;;;10.05;6.15;;;;;;;;;;5034064;28;20024;-77
2023/06/17 12:15:50;;;;;;;10.30;7.00;;;;;;;;;;5033952;28;20022;-75
2023/06/17 12:18:16;;;;;;;10.43;7.13;;;;;;;;;;5033965;28;20140;-75
2023/06/17 12:20:48;;;;;;;12.27;7.10;;;;;;;;;;5033992;28;20030;-74
2023/06/17 12:23:15;;;;;;;14.73;7.60;;;;;;;;;;5033447;28;20029;-74
2023/06/17 12:25:41;;;;;;;13.55;7.35;;;;;;;;;;5033460;28;20083;-73
2023/06/17 12:28:07;;;;;;;18.23;7.65;;;;;;;;;;5033379;28;20044;-75
2023/06/17 12:30:34;;;;;;;12.18;7.75;;;;;;;;;;5033161;28;20391;-75
2023/06/17 12:33:00;;;;;;;17.35;7.25;;;;;;;;;;5033354;28;20021;-74
2023/06/17 12:35:27;;;;;;;13.80;9.02;;;;;;;;;;5033249;28;20025;-74
2023/06/17 12:37:55;;;;;;;13.70;7.60;;;;;;;;;;5033822;28;20033;-76
2023/06/17 12:40:21;;;;;;;10.20;6.70;;;;;;;;;;5033289;28;20433;-75
2023/06/17 12:42:47;;;;;;;13.05;7.25;;;;;;;;;;5033404;28;20029;-76
2023/06/17 12:45:13;;;;;;;11.43;6.82;;;;;;;;;;5032607;28;20052;-74
2023/06/17 12:47:39;;;;;;;11.50;7.10;;;;;;;;;;5035273;28;20471;-74
2023/06/17 12:50:06;;;;;;;12.52;7.80;;;;;;;;;;5034741;28;20026;-76
2023/06/17 12:52:32;;;;;;;13.05;7.18;;;;;;;;;;5034334;28;20021;-76
2023/06/17 12:54:59;;;;;;;13.10;7.43;;;;;;;;;;5033051;28;20063;-76
2023/06/17 12:57:25;;;;;;;18.40;8.40;;;;;;;;;;5032667;28;20103;-76
2023/06/17 12:59:51;;;;;;;15.77;9.90;;;;;;;;;;5033031;28;20055;-75
2023/06/17 13:02:18;;;;;;;10.02;7.03;;;;;;;;;;5031797;28;20029;-74
2023/06/17 13:04:44;;;;;;;14.93;7.55;;;;;;;;;;5032916;28;20032;-74
2023/06/17 13:07:11;;;;;;;12.23;7.18;;;;;;;;;;5032750;28;20029;-75
2023/06/17 13:09:37;;;;;;;13.75;8.13;;;;;;;;;;5029854;28;20143;-73
2023/06/17 13:12:04;;;;;;;15.52;7.70;;;;;;;;;;5031817;28;20383;-75
2023/06/17 13:14:30;;;;;;;11.82;7.47;;;;;;;;;;5034871;28;20104;-76
2023/06/17 13:16:56;;;;;;;14.35;7.80;;;;;;;;;;5034618;28;20502;-74
2023/06/17 13:19:23;;;;;;;13.20;7.43;;;;;;;;;;5035604;28;20029;-75
2023/06/17 13:21:49;;;;;;;14.80;8.30;;;;;;;;;;5030409;28;20149;-72
2023/06/17 13:24:16;;;;;;;12.52;8.40;;;;;;;;;;5031045;28;20053;-74
2023/06/17 13:26:42;;;;;;;15.73;7.80;;;;;;;;;;5031108;28;20026;-73
2023/06/17 13:29:08;;;;;;;13.38;7.70;;;;;;;;;;5030718;28;20368;-74
2023/06/17 13:31:34;;;;;;;10.90;7.25;;;;;;;;;;5030920;28;20017;-73
2023/06/17 13:34:01;;;;;;;15.40;7.68;;;;;;;;;;5029884;28;20064;-75
2023/06/17 13:36:28;;;;;;;9.13;6.57;;;;;;;;;;5030736;28;20554;-74
2023/06/17 13:38:55;;;;;;;17.52;8.35;;;;;;;;;;5030348;28;20022;-74
2023/06/17 13:41:21;;;;;;;16.25;6.80;;;;;;;;;;5030981;28;20025;-74
2023/06/17 13:43:47;;;;;;;11.13;6.85;;;;;;;;;;5032240;28;20433;-77
2023/06/17 13:46:13;;;;;;;21.98;7.95;;;;;;;;;;5032499;28;20025;-79
2023/06/17 13:48:40;;;;;;;21.95;8.90;;;;;;;;;;5031212;28;20029;-76
2023/06/17 13:51:06;;;;;;;25.85;8.73;;;;;;;;;;5031081;28;20572;-77
2023/06/17 13:53:32;;;;;;;17.60;7.53;;;;;;;;;;5030726;28;20025;-73
2023/06/17 13:55:58;;;;;;;18.92;7.75;;;;;;;;;;5035149;28;20112;-77
2023/06/17 13:58:25;;;;;;;14.02;7.28;;;;;;;;;;5034044;28;20034;-78
2023/06/17 14:00:51;;;;;;;12.43;7.00;;;;;;;;;;5031335;28;20029;-75
2023/06/17 14:03:17;;;;;;;12.40;6.47;;;;;;;;;;5030355;28;20443;-76
2023/06/17 14:05:43;;;;;;;10.52;6.55;;;;;;;;;;5030986;28;20112;-77
2023/06/17 14:08:09;;;;;;;11.40;7.70;;;;;;;;;;5031863;28;20033;-76
2023/06/17 14:10:35;;;;;;;11.90;7.63;;;;;;;;;;5032181;28;20429;-79
2023/06/17 14:13:01;;;;;;;20.10;7.75;;;;;;;;;;5031427;28;20044;-77
2023/06/17 14:15:27;;;;;;;14.27;8.77;;;;;;;;;;5031035;28;20487;-76
2023/06/17 14:17:53;;;;;;;18.95;7.80;;;;;;;;;;5031278;28;20036;-74
2023/06/17 14:20:20;;;;;;;14.63;7.70;;;;;;;;;;5031465;28;20029;-77